Time;durP1;ratioP1;P1;durP2;ratioP2;P2;SDS_P1;SDS_P2;PMS_P1;PMS_P2;Temp;Humidity;BMP_temperature;BMP_pressure;BME280_temperature;BME280_humidity;BME280_pressure;Samples;Min_cycle;Max_cycle;Signal;HPM_P1;HPM_P2
2023/09/08 00:00:59;;;;;;;0.00;0.00;;;;;;;21.62;61.14;101742.13;5066586;28;20036;-77
2023/09/08 00:03:25;;;;;;;0.95;0.95;;;;;;;21.60;61.87;101743.16;5071746;28;20025;-76
2023/09/08 00:05:51;;;;;;;0.00;0.00;;;;;;;21.58;61.55;101737.88;5074037;28;20028;-76
2023/09/08 00:08:17;;;;;;;0.03;0.03;;;;;;;21.58;61.89;101734.28;5067687;28;20029;-76
2023/09/08 00:10:43;;;;;;;0.10;0.10;;;;;;;21.58;61.74;101735.16;5067242;28;20879;-75
2023/09/08 00:13:09;;;;;;;0.10;0.10;;;;;;;21.57;61.79;101740.63;5066466;28;20021;-76
2023/09/08 00:15:36;;;;;;;0.10;0.10;;;;;;;21.55;62.30;101743.38;5064212;28;20074;-76
2023/09/08 00:18:02;;;;;;;0.00;0.00;;;;;;;21.53;61.93;101747.09;5064517;28;20032;-77
2023/09/08 00:20:28;;;;;;;0.00;0.00;;;;;;;21.53;62.19;101755.19;5072564;28;20566;-77
2023/09/08 00:22:54;;;;;;;1.45;0.88;;;;;;;21.50;62.11;101746.28;5060450;28;20029;-77
2023/09/08 00:25:20;;;;;;;1.08;0.73;;;;;;;21.51;61.97;101757.97;5066335;28;20449;-77
2023/09/08 00:27:47;;;;;;;0.85;0.85;;;;;;;21.48;62.29;101742.81;5071218;28;20031;-77
2023/09/08 00:30:13;;;;;;;0.00;0.00;;;;;;;21.49;62.04;101754.47;5071087;28;20478;-77
2023/09/08 00:32:39;;;;;;;0.03;0.03;;;;;;;21.47;62.19;101761.75;5063098;28;20044;-77
2023/09/08 00:35:08;;;;;;;0.08;0.08;;;;;;;21.48;61.56;101752.72;5069148;28;20035;-77
2023/09/08 00:37:34;;;;;;;0.63;0.63;;;;;;;21.47;62.22;101759.06;5065486;28;20108;-77
2023/09/08 00:40:00;;;;;;;0.00;0.00;;;;;;;21.46;62.10;101754.66;5064439;28;20059;-78
2023/09/08 00:42:26;;;;;;;0.10;0.10;;;;;;;21.46;61.81;101757.34;5072937;28;20039;-80
2023/09/08 00:44:52;;;;;;;0.10;0.10;;;;;;;21.45;62.42;101758.28;5072168;28;20031;-80
2023/09/08 00:47:18;;;;;;;0.00;0.00;;;;;;;21.45;62.34;101755.59;5071033;28;20418;-80
2023/09/08 00:49:45;;;;;;;0.00;0.00;;;;;;;21.46;62.06;101757.34;5077568;28;20044;-80
2023/09/08 00:52:12;;;;;;;0.10;0.10;;;;;;;21.45;62.29;101748.38;5065804;28;20155;-80
2023/09/08 00:54:38;;;;;;;1.08;0.40;;;;;;;21.45;62.53;101752.91;5072319;28;20086;-80
2023/09/08 00:57:06;;;;;;;0.10;0.10;;;;;;;21.44;61.86;101756.53;5073065;28;20064;-80
2023/09/08 00:59:33;;;;;;;0.03;0.03;;;;;;;21.43;62.55;101755.69;5074677;28;20095;-79
2023/09/08 01:01:59;;;;;;;0.08;0.08;;;;;;;21.43;62.09;101754.78;5073751;28;20036;-81
2023/09/08 01:04:25;;;;;;;0.20;0.20;;;;;;;21.41;62.45;101756.69;5074019;28;20060;-80
2023/09/08 01:06:52;;;;;;;0.00;0.00;;;;;;;21.40;62.38;101754.97;5078388;28;20020;-81
2023/09/08 01:09:19;;;;;;;0.20;0.20;;;;;;;21.39;62.83;101753.22;5083043;28;20035;-79
2023/09/08 01:11:45;;;;;;;0.45;0.45;;;;;;;21.38;61.85;101756.84;5077460;28;20111;-79
2023/09/08 01:14:13;;;;;;;0.00;0.00;;;;;;;21.37;62.11;101755.09;5086171;28;20094;-80
2023/09/08 01:16:40;;;;;;;0.00;0.00;;;;;;;21.34;61.69;101758.81;5084056;28;20024;-80
2023/09/08 01:19:12;;;;;;;0.00;0.00;;;;;;;21.37;61.92;101749.72;5081294;28;20055;-79
2023/09/08 01:27:25;;;;;;;0.73;0.15;;;;;;;21.36;62.03;101753.34;5108091;27;20382;-81
2023/09/08 01:29:53;;;;;;;0.00;0.00;;;;;;;21.34;62.03;101751.59;5100440;28;20118;-80
2023/09/08 01:32:20;;;;;;;0.00;0.00;;;;;;;21.31;62.50;101749.06;5095448;28;20103;-81
2023/09/08 01:34:47;;;;;;;0.35;0.35;;;;;;;21.29;62.34;101755.50;5086259;28;20058;-80
2023/09/08 01:37:13;;;;;;;0.38;0.38;;;;;;;21.25;62.44;101746.69;5098740;28;20040;-80
2023/09/08 01:39:39;;;;;;;0.10;0.10;;;;;;;21.23;62.89;101753.13;5098532;28;20034;-79
2023/09/08 01:42:05;;;;;;;0.13;0.13;;;;;;;21.21;62.58;101755.91;5095414;28;20169;-80
2023/09/08 01:44:31;;;;;;;0.03;0.03;;;;;;;21.18;62.72;101753.34;5099094;28;20031;-79
2023/09/08 01:46:58;;;;;;;0.00;0.00;;;;;;;21.16;62.01;101752.56;5099206;28;20020;-80
2023/09/08 01:49:24;;;;;;;0.00;0.00;;;;;;;21.13;62.66;101763.47;5100053;28;20085;-80
2023/09/08 01:51:50;;;;;;;0.10;0.10;;;;;;;21.12;62.33;101753.63;5098356;28;20074;-81
2023/09/08 01:54:17;;;;;;;0.30;0.30;;;;;;;21.09;62.93;101757.38;5099630;28;20066;-80
2023/09/08 01:56:43;;;;;;;0.70;0.70;;;;;;;21.07;63.00;101763.78;5101716;28;20024;-79
2023/09/08 01:59:09;;;;;;;0.00;0.00;;;;;;;21.05;62.76;101752.19;5088428;28;20494;-80
2023/09/08 02:01:36;;;;;;;0.00;0.00;;;;;;;21.01;63.06;101744.28;5100449;28;20035;-79
2023/09/08 02:04:02;;;;;;;0.00;0.00;;;;;;;20.99;63.20;101751.56;5101383;28;20020;-79
2023/09/08 02:06:28;;;;;;;0.20;0.20;;;;;;;20.98;62.98;101749.81;5095167;28;20020;-80
2023/09/08 02:08:54;;;;;;;0.00;0.00;;;;;;;20.95;62.77;101749.97;5094333;28;20580;-80
2023/09/08 02:11:21;;;;;;;0.00;0.00;;;;;;;20.93;62.92;101741.09;5091029;28;20039;-81
2023/09/08 02:13:47;;;;;;;0.10;0.10;;;;;;;20.92;63.38;101739.38;5084832;28;20486;-80
2023/09/08 02:16:15;;;;;;;0.57;0.57;;;;;;;20.91;62.38;101743.00;5082691;28;20082;-80
2023/09/08 02:18:43;;;;;;;0.10;0.10;;;;;;;20.90;63.17;101740.34;5093579;28;20067;-80
2023/09/08 02:21:09;;;;;;;0.20;0.20;;;;;;;20.86;62.84;101739.66;5097217;28;20046;-81
2023/09/08 02:23:35;;;;;;;0.00;0.00;;;;;;;20.85;63.41;101743.31;5091743;28;20044;-80
2023/09/08 02:26:01;;;;;;;0.00;0.00;;;;;;;20.82;63.05;101743.44;5089464;28;20036;-81
2023/09/08 02:28:27;;;;;;;1.55;0.43;;;;;;;20.81;63.07;101747.06;5095916;28;20455;-81
2023/09/08 02:30:54;;;;;;;0.00;0.00;;;;;;;20.79;62.97;101747.16;5111167;28;20028;-80
2023/09/08 02:33:21;;;;;;;0.00;0.00;;;;;;;20.78;62.83;101748.09;5101142;28;20041;-82
2023/09/08 02:35:47;;;;;;;0.32;0.32;;;;;;;20.78;62.88;101747.25;5094326;28;20035;-82
2023/09/08 02:38:13;;;;;;;1.25;0.32;;;;;;;20.75;62.83;101742.88;5091580;28;20728;-82
2023/09/08 02:40:39;;;;;;;0.08;0.08;;;;;;;20.74;63.51;101745.66;5082416;28;20050;-81
2023/09/08 02:43:05;;;;;;;0.03;0.03;;;;;;;20.71;63.43;101740.38;5077310;28;20031;-81
2023/09/08 02:45:31;;;;;;;0.25;0.17;;;;;;;20.68;63.57;101747.63;5078911;28;20037;-81
2023/09/08 02:47:57;;;;;;;0.20;0.20;;;;;;;20.66;63.11;101749.53;5081635;28;20028;-81
2023/09/08 02:50:23;;;;;;;0.08;0.08;;;;;;;20.65;63.02;101742.41;5073767;28;20044;-81
2023/09/08 02:52:50;;;;;;;0.10;0.10;;;;;;;20.63;63.73;101747.00;5083580;28;20400;-81
2023/09/08 02:55:16;;;;;;;0.15;0.15;;;;;;;20.62;63.81;101747.06;5078648;28;20021;-82
2023/09/08 02:57:42;;;;;;;0.10;0.10;;;;;;;20.58;64.14;101746.34;5074551;28;20032;-80
2023/09/08 03:00:08;;;;;;;0.52;0.52;;;;;;;20.56;64.12;101750.94;5083047;28;20036;-82
2023/09/08 03:02:35;;;;;;;0.10;0.10;;;;;;;20.57;63.79;101757.19;5079098;28;20047;-81
2023/09/08 03:05:01;;;;;;;0.17;0.17;;;;;;;20.57;63.79;101751.81;5076919;28;20428;-80
2023/09/08 03:07:28;;;;;;;0.10;0.10;;;;;;;20.56;63.83;101753.63;5078148;28;20032;-79
2023/09/08 03:09:54;;;;;;;0.17;0.17;;;;;;;20.53;64.41;101748.38;5077971;28;20096;-80
2023/09/08 03:12:20;;;;;;;0.10;0.10;;;;;;;20.51;64.02;101750.25;5078683;28;20104;-79
2023/09/08 03:14:46;;;;;;;0.00;0.00;;;;;;;20.48;64.18;101739.66;5081363;28;20378;-78
2023/09/08 03:17:12;;;;;;;0.73;0.22;;;;;;;20.48;63.35;101739.66;5079610;28;20025;-80
2023/09/08 03:19:39;;;;;;;0.10;0.10;;;;;;;20.45;64.13;101739.78;5068197;28;20021;-80
2023/09/08 03:22:05;;;;;;;0.10;0.10;;;;;;;20.43;64.53;101731.78;5077322;28;20025;-79
2023/09/08 03:24:31;;;;;;;0.10;0.10;;;;;;;20.42;64.45;101742.63;5081869;28;20476;-79
2023/09/08 03:26:58;;;;;;;0.20;0.20;;;;;;;20.38;65.14;101732.97;5084180;28;20020;-79
2023/09/08 03:29:24;;;;;;;0.00;0.00;;;;;;;20.35;64.70;101729.47;5084123;28;20060;-79
2023/09/08 03:31:50;;;;;;;0.10;0.10;;;;;;;20.34;63.84;101732.25;5079253;28;20028;-80
2023/09/08 03:34:17;;;;;;;0.10;0.10;;;;;;;20.32;64.80;101732.28;5081143;28;20279;-79
2023/09/08 03:36:43;;;;;;;0.10;0.10;;;;;;;20.32;64.12;101721.53;5083680;28;20017;-79
2023/09/08 03:39:09;;;;;;;0.10;0.10;;;;;;;20.31;63.73;101716.22;5083840;28;20085;-80
2023/09/08 03:41:36;;;;;;;0.25;0.25;;;;;;;20.29;64.57;101727.06;5079026;28;20569;-80
2023/09/08 03:44:02;;;;;;;0.10;0.10;;;;;;;20.29;64.11;101723.50;5087132;28;20393;-80
2023/09/08 03:46:28;;;;;;;0.10;0.10;;;;;;;20.26;64.63;101713.78;5079246;28;20489;-80
2023/09/08 03:48:58;;;;;;;0.30;0.30;;;;;;;20.25;64.50;101717.41;5076872;28;20029;-79
2023/09/08 03:51:24;;;;;;;2.65;0.40;;;;;;;20.24;64.17;101715.66;5073062;28;20032;-78
2023/09/08 03:53:51;;;;;;;0.10;0.10;;;;;;;20.23;64.25;101719.28;5077296;28;20033;-79
2023/09/08 03:56:17;;;;;;;0.10;0.10;;;;;;;20.23;63.74;101716.59;5077801;28;20036;-79
2023/09/08 03:58:43;;;;;;;0.00;0.00;;;;;;;20.20;64.39;101720.31;5081753;28;20024;-79
2023/09/08 04:01:09;;;;;;;0.10;0.10;;;;;;;20.19;64.78;101709.63;5082012;28;20035;-80
2023/09/08 04:03:35;;;;;;;0.10;0.10;;;;;;;20.19;64.17;101712.31;5080045;28;20038;-80
2023/09/08 04:06:01;;;;;;;3.08;0.57;;;;;;;20.17;64.55;101716.88;5080009;28;20028;-79
2023/09/08 04:08:27;;;;;;;0.10;0.10;;;;;;;20.14;64.73;101717.91;5082894;28;20047;-80
2023/09/08 04:10:53;;;;;;;0.10;0.10;;;;;;;20.13;64.51;101715.28;5074053;28;20038;-80
2023/09/08 04:13:19;;;;;;;0.52;0.52;;;;;;;20.11;64.46;101714.47;5072250;28;20032;-79
2023/09/08 04:15:45;;;;;;;0.28;0.28;;;;;;;20.11;64.43;101714.47;5077896;28;20374;-80
2023/09/08 04:18:11;;;;;;;6.50;1.17;;;;;;;20.10;64.23;101713.59;5073196;28;20410;-80
2023/09/08 04:20:38;;;;;;;0.13;0.13;;;;;;;20.09;64.72;101713.66;5083401;28;20035;-79
2023/09/08 04:23:04;;;;;;;0.10;0.10;;;;;;;20.08;63.97;101711.94;5079242;28;20125;-79
2023/09/08 04:25:30;;;;;;;0.08;0.08;;;;;;;20.05;64.33;101704.88;5076439;28;20025;-78
2023/09/08 04:27:56;;;;;;;0.60;0.60;;;;;;;20.06;64.25;101716.50;5082546;28;20034;-78
2023/09/08 04:30:22;;;;;;;0.13;0.13;;;;;;;20.04;64.27;101709.38;5073781;28;20024;-78
2023/09/08 04:32:48;;;;;;;0.00;0.00;;;;;;;20.02;64.13;101716.63;5075959;28;20111;-79
2023/09/08 04:35:14;;;;;;;0.43;0.43;;;;;;;20.02;64.52;101718.47;5073578;28;20086;-79
2023/09/08 04:37:40;;;;;;;0.00;0.00;;;;;;;20.01;64.69;101714.91;5077671;28;20446;-79
2023/09/08 04:40:07;;;;;;;0.00;0.00;;;;;;;20.00;64.40;101718.53;5077834;28;20096;-79
2023/09/08 04:42:33;;;;;;;0.65;0.65;;;;;;;19.97;64.96;101715.97;5065893;28;20039;-78
2023/09/08 04:44:59;;;;;;;0.25;0.25;;;;;;;19.97;64.41;101709.72;5072612;28;20032;-78
2023/09/08 04:47:25;;;;;;;0.10;0.10;;;;;;;19.94;64.31;101713.44;5077415;28;20060;-79
2023/09/08 04:49:51;;;;;;;0.00;0.00;;;;;;;19.91;64.41;101718.94;5076294;28;20020;-78
2023/09/08 04:52:18;;;;;;;0.38;0.38;;;;;;;19.91;63.83;101718.94;5077539;28;20111;-78
2023/09/08 04:54:44;;;;;;;0.00;0.00;;;;;;;19.91;64.18;101715.38;5080060;28;20029;-78
2023/09/08 04:57:10;;;;;;;0.73;0.73;;;;;;;19.89;64.76;101715.47;5077916;28;20426;-78
2023/09/08 04:59:38;;;;;;;0.85;0.85;;;;;;;19.88;64.15;101719.09;5077644;28;20039;-79
2023/09/08 05:02:04;;;;;;;0.60;0.52;;;;;;;19.88;64.69;101719.09;5073261;28;20039;-79
2023/09/08 05:04:31;;;;;;;0.10;0.10;;;;;;;19.87;64.48;101722.72;5076407;28;20448;-80
2023/09/08 05:06:57;;;;;;;0.00;0.00;;;;;;;19.87;64.88;101723.56;5077518;28;20375;-79
2023/09/08 05:09:23;;;;;;;0.00;0.00;;;;;;;19.86;65.06;101726.34;5075512;28;20071;-78
2023/09/08 05:11:49;;;;;;;0.77;0.77;;;;;;;19.86;64.84;101729.03;5074291;28;20021;-78
2023/09/08 05:14:15;;;;;;;0.13;0.13;;;;;;;19.86;64.86;101729.03;5068161;28;20090;-79
2023/09/08 05:16:55;;;;;;;0.57;0.57;;;;;;;19.86;65.01;101729.03;5075711;28;20021;-78
2023/09/08 05:19:22;;;;;;;0.10;0.10;;;;;;;19.86;65.13;101726.34;5074243;28;20028;-78
2023/09/08 05:21:50;;;;;;;0.00;0.00;;;;;;;19.86;65.22;101729.94;5069755;28;20370;-79
2023/09/08 05:24:16;;;;;;;0.10;0.10;;;;;;;19.86;65.07;101731.72;5075092;28;20435;-77
2023/09/08 05:26:42;;;;;;;0.20;0.20;;;;;;;19.87;65.00;101728.09;5075272;28;20020;-78
2023/09/08 05:29:08;;;;;;;0.38;0.38;;;;;;;19.88;64.81;101735.22;5074826;28;20039;-79
2023/09/08 05:31:34;;;;;;;1.10;0.40;;;;;;;19.90;64.96;101732.47;5076482;28;20461;-79
2023/09/08 05:34:00;;;;;;;0.03;0.03;;;;;;;19.91;64.86;101735.06;5078462;28;20583;-78
2023/09/08 05:36:26;;;;;;;0.17;0.17;;;;;;;19.92;64.59;101722.53;5074221;28;20039;-77
2023/09/08 05:38:53;;;;;;;0.10;0.10;;;;;;;19.92;64.88;101731.44;5067240;28;20032;-77
2023/09/08 05:41:19;;;;;;;0.30;0.30;;;;;;;19.94;64.90;101731.38;5069938;28;20028;-78
2023/09/08 05:43:45;;;;;;;0.10;0.10;;;;;;;19.95;64.71;101738.50;5068293;28;20045;-78
2023/09/08 05:46:12;;;;;;;0.15;0.15;;;;;;;19.96;64.61;101735.78;5069851;28;20047;-78
2023/09/08 05:48:38;;;;;;;0.10;0.10;;;;;;;19.99;64.57;101738.31;5080300;28;20032;-79
2023/09/08 05:51:06;;;;;;;0.00;0.00;;;;;;;20.01;64.49;101741.81;5068064;28;20036;-78
2023/09/08 05:53:32;;;;;;;0.25;0.25;;;;;;;20.02;64.61;101743.53;5074697;28;20029;-79
2023/09/08 05:55:59;;;;;;;0.05;0.05;;;;;;;20.04;64.42;101759.63;5060363;28;20024;-77
2023/09/08 05:58:27;;;;;;;0.10;0.10;;;;;;;20.05;64.88;101747.91;5063159;28;20075;-79
2023/09/08 06:00:53;;;;;;;0.17;0.17;;;;;;;20.08;64.27;101752.28;5064858;28;20040;-78
2023/09/08 06:03:20;;;;;;;0.10;0.10;;;;;;;20.11;64.96;101754.81;5076465;28;20043;-79
2023/09/08 06:05:46;;;;;;;0.10;0.10;;;;;;;20.13;64.87;101752.94;5066168;28;20024;-79
2023/09/08 06:08:12;;;;;;;0.10;0.10;;;;;;;20.16;64.73;101751.00;5064031;28;20037;-77
2023/09/08 06:10:38;;;;;;;0.10;0.10;;;;;;;20.20;64.37;101757.09;5070805;28;20036;-80
2023/09/08 06:13:04;;;;;;;0.10;0.10;;;;;;;20.23;64.48;101759.66;5076207;28;20020;-80
2023/09/08 06:15:31;;;;;;;0.00;0.00;;;;;;;20.27;64.82;101763.06;5076167;28;20043;-79
2023/09/08 06:17:57;;;;;;;0.10;0.10;;;;;;;20.30;64.78;101766.50;5077564;28;20472;-77
2023/09/08 06:20:24;;;;;;;0.10;0.10;;;;;;;20.33;65.04;101763.66;5079453;28;20439;-75
2023/09/08 06:22:50;;;;;;;0.80;0.80;;;;;;;20.39;64.40;101767.00;5071426;28;20412;-77
2023/09/08 06:25:16;;;;;;;0.10;0.10;;;;;;;20.43;64.60;101763.22;5081073;28;20031;-77
2023/09/08 06:27:42;;;;;;;0.10;0.10;;;;;;;20.48;64.53;101771.97;5076642;28;20037;-77
2023/09/08 06:30:09;;;;;;;0.00;0.00;;;;;;;20.53;64.60;101764.53;5072616;28;20028;-78
2023/09/08 06:32:35;;;;;;;0.40;0.40;;;;;;;20.57;64.56;101768.81;5072837;28;20037;-77
2023/09/08 06:35:02;;;;;;;1.40;0.77;;;;;;;20.63;64.39;101768.53;5072719;28;20115;-77
2023/09/08 06:37:28;;;;;;;0.10;0.10;;;;;;;20.69;64.51;101776.31;5077562;28;20080;-76
2023/09/08 06:39:55;;;;;;;0.20;0.20;;;;;;;20.76;64.45;101770.66;5067166;28;20030;-78
2023/09/08 06:42:21;;;;;;;0.73;0.55;;;;;;;20.81;64.17;101764.13;5073276;28;20469;-78
2023/09/08 06:44:47;;;;;;;0.10;0.10;;;;;;;20.87;64.47;101768.31;5072942;28;20048;-77
2023/09/08 06:47:13;;;;;;;0.25;0.25;;;;;;;20.92;64.69;101766.31;5073600;28;20044;-77
2023/09/08 06:49:39;;;;;;;0.47;0.47;;;;;;;20.95;64.63;101766.13;5085125;28;20051;-78
2023/09/08 06:52:05;;;;;;;0.40;0.40;;;;;;;20.99;64.72;101773.09;5073256;28;20040;-77
2023/09/08 06:54:32;;;;;;;0.10;0.10;;;;;;;21.05;64.42;101755.78;5068962;28;20046;-77
2023/09/08 06:56:58;;;;;;;0.25;0.25;;;;;;;21.12;64.24;101768.00;5063840;28;20028;-77
2023/09/08 06:59:24;;;;;;;0.15;0.15;;;;;;;21.19;64.20;101768.56;5050720;28;20112;-77
2023/09/08 07:01:50;;;;;;;0.73;0.65;;;;;;;21.27;64.14;101773.56;5066919;28;20082;-77
2023/09/08 07:04:16;;;;;;;0.57;0.57;;;;;;;21.34;64.28;101772.31;5071308;28;20089;-77
2023/09/08 07:06:43;;;;;;;0.35;0.35;;;;;;;21.38;64.73;101768.50;5075221;28;20056;-78
2023/09/08 07:09:09;;;;;;;0.20;0.20;;;;;;;21.43;64.21;101770.97;5084317;28;20024;-79
2023/09/08 07:11:35;;;;;;;0.20;0.20;;;;;;;21.47;64.59;101770.72;5096773;28;20038;-78
2023/09/08 07:14:02;;;;;;;0.10;0.10;;;;;;;21.54;64.64;101771.28;5082154;28;20047;-78
2023/09/08 07:16:29;;;;;;;0.00;0.00;;;;;;;21.58;65.21;101762.13;5073387;28;20017;-78
2023/09/08 07:18:55;;;;;;;0.52;0.52;;;;;;;21.65;64.82;101766.22;5075296;28;20048;-77
2023/09/08 07:21:21;;;;;;;0.73;0.73;;;;;;;21.73;64.57;101768.56;5074983;28;20089;-78
2023/09/08 07:23:47;;;;;;;0.10;0.10;;;;;;;21.79;64.87;101767.34;5073157;28;20124;-77
2023/09/08 07:26:13;;;;;;;0.10;0.10;;;;;;;21.86;64.63;101773.28;5081289;28;20028;-77
2023/09/08 07:28:39;;;;;;;0.20;0.20;;;;;;;21.93;64.94;101769.28;5081348;28;20047;-77
2023/09/08 07:31:08;;;;;;;0.10;0.10;;;;;;;22.01;64.85;101763.47;5090715;28;20035;-77
2023/09/08 07:33:35;;;;;;;0.40;0.40;;;;;;;22.08;64.75;101763.09;5080004;28;20603;-78
2023/09/08 07:36:09;;;;;;;0.10;0.10;;;;;;;22.22;64.53;101769.53;5070042;28;20021;-78
2023/09/08 07:38:35;;;;;;;0.15;0.15;;;;;;;22.22;65.22;101770.44;5074151;28;20442;-77
2023/09/08 07:41:02;;;;;;;0.20;0.20;;;;;;;22.33;64.38;101774.38;5071936;28;20085;-78
2023/09/08 07:43:29;;;;;;;0.10;0.10;;;;;;;22.40;64.24;101767.72;5071515;28;20043;-77
2023/09/08 07:45:55;;;;;;;1.00;0.85;;;;;;;22.50;64.10;101773.47;5066346;28;20043;-78
2023/09/08 07:48:21;;;;;;;5.53;0.82;;;;;;;22.52;64.95;101774.25;5075534;28;20048;-79
2023/09/08 07:50:47;;;;;;;0.10;0.10;;;;;;;22.62;63.82;101776.34;5093473;28;20032;-80
2023/09/08 07:53:13;;;;;;;0.30;0.30;;;;;;;22.72;63.85;101770.44;5093470;28;20036;-80
2023/09/08 07:55:39;;;;;;;0.10;0.10;;;;;;;22.82;63.83;101771.66;5074486;28;20398;-80
2023/09/08 07:58:05;;;;;;;0.20;0.20;;;;;;;22.91;63.96;101771.13;5076459;28;20409;-80
2023/09/08 08:00:32;;;;;;;0.10;0.10;;;;;;;23.00;63.56;101767.00;5078365;28;20075;-79
2023/09/08 08:02:59;;;;;;;0.20;0.20;;;;;;;23.10;63.71;101772.75;5070412;28;20063;-78
2023/09/08 08:05:25;;;;;;;0.10;0.10;;;;;;;23.23;63.34;101773.81;5075398;28;20496;-79
2023/09/08 08:07:51;;;;;;;0.22;0.22;;;;;;;23.33;63.29;101767.84;5078642;28;20043;-80
2023/09/08 08:10:19;;;;;;;0.10;0.10;;;;;;;23.42;63.06;101764.63;5083290;28;20032;-80
2023/09/08 08:12:45;;;;;;;0.10;0.10;;;;;;;23.51;62.99;101766.75;5075287;28;20048;-79
2023/09/08 08:15:11;;;;;;;0.00;0.00;;;;;;;23.61;63.24;101760.81;5063518;28;20433;-80
2023/09/08 08:17:39;;;;;;;0.05;0.05;;;;;;;23.73;62.62;101760.91;5079077;28;20024;-80
2023/09/08 08:20:08;;;;;;;4.30;0.52;;;;;;;23.83;62.35;101765.78;5081884;28;20678;-81
2023/09/08 08:22:35;;;;;;;0.10;0.10;;;;;;;23.92;62.15;101761.66;5066250;28;20041;-80
2023/09/08 08:25:03;;;;;;;0.10;0.10;;;;;;;24.01;62.29;101758.38;5072330;28;20029;-79
2023/09/08 08:27:30;;;;;;;0.00;0.00;;;;;;;24.12;62.21;101755.84;5070292;28;20030;-78
2023/09/08 08:29:59;;;;;;;0.20;0.20;;;;;;;24.15;62.45;101758.38;5079600;28;20037;-79
2023/09/08 08:32:25;;;;;;;0.98;0.98;;;;;;;24.32;61.84;101757.28;5080589;28;20063;-79
2023/09/08 08:34:51;;;;;;;0.20;0.20;;;;;;;24.44;61.90;101757.50;5072636;28;20460;-80
2023/09/08 08:37:18;;;;;;;1.00;1.00;;;;;;;24.57;61.61;101754.88;5074252;28;20032;-80
2023/09/08 08:39:44;;;;;;;0.17;0.17;;;;;;;24.65;61.74;101763.38;5076069;28;20029;-79
2023/09/08 08:42:11;;;;;;;0.00;0.00;;;;;;;24.80;60.95;101767.81;5085742;28;20038;-79
2023/09/08 08:44:39;;;;;;;0.60;0.60;;;;;;;24.90;61.05;101761.75;5075614;28;20203;-79
2023/09/08 08:47:07;;;;;;;0.25;0.25;;;;;;;25.02;60.80;101771.78;5071725;28;20036;-79
2023/09/08 08:49:33;;;;;;;0.00;0.00;;;;;;;25.11;61.19;101768.47;5073642;28;20033;-79
2023/09/08 08:52:07;;;;;;;0.30;0.30;;;;;;;25.23;60.70;101763.19;5084953;28;20036;-79
2023/09/08 08:54:37;;;;;;;0.20;0.20;;;;;;;25.35;60.72;101765.09;5064525;28;20029;-81
2023/09/08 08:57:04;;;;;;;3.72;1.38;;;;;;;25.48;60.35;101762.41;5076605;28;20032;-80
2023/09/08 08:59:30;;;;;;;0.10;0.10;;;;;;;25.60;60.16;101768.84;5064350;28;20036;-80
2023/09/08 09:01:58;;;;;;;1.13;0.65;;;;;;;25.70;60.30;101771.81;5074243;28;20030;-81
2023/09/08 09:04:25;;;;;;;3.35;1.00;;;;;;;25.84;60.05;101775.28;5073044;28;20035;-81
2023/09/08 09:06:55;;;;;;;0.22;0.22;;;;;;;25.95;59.32;101770.94;5074073;28;20042;-81
2023/09/08 09:09:22;;;;;;;0.85;0.85;;;;;;;26.06;59.39;101776.50;5077149;28;20043;-81
2023/09/08 09:11:49;;;;;;;0.50;0.50;;;;;;;26.19;59.52;101768.34;5081173;28;20039;-81
2023/09/08 09:14:17;;;;;;;0.20;0.20;;;;;;;26.31;58.67;101772.88;5072823;28;20029;-81
2023/09/08 09:16:43;;;;;;;0.08;0.08;;;;;;;26.43;58.43;101768.44;5076821;28;20028;-81
2023/09/08 09:19:16;;;;;;;0.10;0.10;;;;;;;26.56;58.48;101764.81;5070540;28;20029;-81
2023/09/08 09:24:31;;;;;;;0.80;0.80;;;;;;;26.86;58.19;101774.44;5071571;27;1925408;-81
2023/09/08 09:26:57;;;;;;;0.20;0.20;;;;;;;26.92;58.03;101771.25;5120578;28;20034;-81
2023/09/08 09:29:23;;;;;;;0.65;0.65;;;;;;;27.02;57.64;101766.00;5125455;28;20519;-81
2023/09/08 09:31:53;;;;;;;0.30;0.30;;;;;;;27.16;57.66;101767.66;5126494;28;20342;-81
2023/09/08 09:34:20;;;;;;;0.20;0.20;;;;;;;27.27;57.66;101759.53;5118985;28;20690;-80
2023/09/08 09:36:49;;;;;;;0.20;0.20;;;;;;;27.38;57.43;101762.31;5141733;27;20027;-81
2023/09/08 09:39:18;;;;;;;0.20;0.20;;;;;;;27.53;57.28;101770.31;5121201;28;20032;-80
2023/09/08 09:41:46;;;;;;;0.15;0.15;;;;;;;27.63;57.08;101765.00;5142536;27;20054;-79
2023/09/08 09:44:13;;;;;;;0.10;0.10;;;;;;;27.75;56.64;101764.91;5124093;28;20397;-81
2023/09/08 09:46:42;;;;;;;0.10;0.10;;;;;;;27.86;56.36;101763.19;5131868;27;20027;-81
2023/09/08 09:49:13;;;;;;;1.15;0.85;;;;;;;28.01;56.65;101759.22;5127455;28;20453;-81
2023/09/08 09:51:47;;;;;;;2.28;0.52;;;;;;;28.13;56.58;101759.31;5131051;27;20031;-81
2023/09/08 09:54:14;;;;;;;0.45;0.20;;;;;;;28.26;56.42;101757.28;5119699;28;20084;-81
2023/09/08 09:56:41;;;;;;;0.10;0.10;;;;;;;28.36;55.78;101755.56;5139630;27;20055;-80
2023/09/08 09:59:10;;;;;;;0.05;0.05;;;;;;;28.48;56.10;101758.28;5130495;27;20027;-80
2023/09/08 10:01:37;;;;;;;0.10;0.10;;;;;;;28.58;55.63;101756.53;5130988;27;20100;-81
2023/09/08 10:04:04;;;;;;;0.25;0.25;;;;;;;28.68;54.54;101756.66;5115670;28;20063;-80
2023/09/08 10:06:33;;;;;;;0.20;0.20;;;;;;;28.80;54.87;101752.03;5130635;28;20042;-80
2023/09/08 10:09:01;;;;;;;0.22;0.22;;;;;;;28.87;54.05;101747.81;5129632;28;20115;-80
2023/09/08 10:11:33;;;;;;;0.00;0.00;;;;;;;29.02;54.26;101751.09;5131154;27;20069;-79
2023/09/08 10:14:00;;;;;;;0.10;0.10;;;;;;;29.11;54.14;101750.34;5121701;28;20084;-80
2023/09/08 10:16:28;;;;;;;0.10;0.10;;;;;;;29.19;53.90;101747.81;5132955;27;20081;-81
2023/09/08 10:18:57;;;;;;;0.10;0.10;;;;;;;29.29;54.00;101760.72;5115101;28;20039;-80
2023/09/08 10:21:26;;;;;;;0.98;0.98;;;;;;;29.40;54.11;101752.47;5127566;27;20129;-80
2023/09/08 10:24:01;;;;;;;0.20;0.20;;;;;;;29.49;54.34;101748.91;5130586;28;20054;-80
2023/09/08 10:26:30;;;;;;;0.20;0.20;;;;;;;29.56;53.27;101752.00;5129423;27;20024;-81
2023/09/08 10:28:57;;;;;;;0.63;0.63;;;;;;;29.67;53.45;101751.94;5126412;28;20118;-81
2023/09/08 10:31:27;;;;;;;0.17;0.17;;;;;;;29.76;52.68;101753.00;5128215;27;20047;-80
2023/09/08 10:33:56;;;;;;;0.15;0.15;;;;;;;29.83;51.76;101754.19;5129391;27;20028;-81
2023/09/08 10:36:24;;;;;;;0.10;0.10;;;;;;;29.89;51.60;101750.06;5118039;27;20396;-81
2023/09/08 10:38:51;;;;;;;0.32;0.32;;;;;;;29.98;52.54;101752.00;5120176;27;20027;-81
2023/09/08 10:44:07;;;;;;;0.03;0.03;;;;;;;30.19;51.19;101745.59;5153544;27;20115;-80
2023/09/08 10:46:40;;;;;;;4.70;0.88;;;;;;;30.31;51.28;101741.75;5131434;27;20431;-80
2023/09/08 10:49:17;;;;;;;0.52;0.50;;;;;;;30.46;51.24;101733.19;5122089;27;20028;-80
2023/09/08 10:51:45;;;;;;;0.10;0.10;;;;;;;30.54;51.17;101737.97;5135239;27;20073;-79
2023/09/08 10:54:41;;;;;;;0.10;0.10;;;;;;;30.76;50.55;101743.19;5127893;27;20033;-80
2023/09/08 10:57:14;;;;;;;0.20;0.20;;;;;;;30.78;48.86;101737.56;5121693;27;20027;-80
2023/09/08 10:59:53;;;;;;;0.30;0.20;;;;;;;30.87;50.00;101742.22;5116523;27;20031;-81
2023/09/08 11:02:37;;;;;;;0.35;0.35;;;;;;;30.97;50.30;101743.06;5136885;27;20024;-81
2023/09/08 11:05:07;;;;;;;1.48;1.38;;;;;;;30.96;48.90;101745.97;5138497;27;20087;-81
2023/09/08 11:07:43;;;;;;;0.52;0.52;;;;;;;31.07;49.58;101742.25;5135971;27;20024;-81
2023/09/08 11:10:11;;;;;;;0.10;0.10;;;;;;;31.10;48.91;101741.97;5126574;27;20110;-81
2023/09/08 11:12:51;;;;;;;0.00;0.00;;;;;;;31.24;49.37;101741.53;5131829;27;20087;-80
2023/09/08 11:15:54;;;;;;;0.20;0.20;;;;;;;31.42;48.87;101749.00;5125504;27;20068;-81
2023/09/08 11:18:39;;;;;;;0.20;0.20;;;;;;;31.40;45.85;101743.66;5125113;27;20074;-80
2023/09/08 11:21:34;;;;;;;0.00;0.00;;;;;;;31.57;46.89;101742.06;5131389;27;20020;-80
2023/09/08 11:24:06;;;;;;;0.10;0.10;;;;;;;31.62;48.47;101747.94;5139370;27;20036;-80
2023/09/08 11:26:36;;;;;;;0.20;0.20;;;;;;;31.66;46.75;101742.22;5146320;27;20365;-80
2023/09/08 11:29:27;;;;;;;0.35;0.35;;;;;;;31.75;46.60;101739.47;5119057;27;20067;-81
2023/09/08 11:33:25;;;;;;;0.00;0.00;;;;;;;31.91;43.71;101741.53;5119919;27;20469;-82
2023/09/08 11:35:35;;;;;;;0.98;0.68;;;;;;;31.98;45.31;101740.94;5105216;27;20078;-83
2023/09/08 11:38:41;;;;;;;0.60;0.60;;;;;;;32.11;42.89;101741.47;5129018;27;20035;-83